createdAt,value
2019-04-26T00:01:15.977Z,11.83
2019-04-26T00:03:47.541Z,11.93
2019-04-26T00:06:18.751Z,11.73
2019-04-26T00:08:53.792Z,11.67
2019-04-26T00:11:32.637Z,11.55
2019-04-26T00:14:21.078Z,11.66
2019-04-26T00:16:55.764Z,11.52
2019-04-26T00:19:26.476Z,11.52
2019-04-26T00:21:57.144Z,11.63
2019-04-26T00:24:28.559Z,11.51
2019-04-26T00:27:00.175Z,11.37
2019-04-26T00:29:30.988Z,11.58
2019-04-26T00:32:01.552Z,11.59
2019-04-26T00:34:31.972Z,11.50
2019-04-26T00:37:02.682Z,11.63
2019-04-26T00:39:32.970Z,11.64
2019-04-26T00:42:04.529Z,11.50
2019-04-26T00:44:35.203Z,11.65
2019-04-26T00:47:07.017Z,11.68
2019-04-26T00:49:44.016Z,11.67
2019-04-26T00:52:11.143Z,11.65
2019-04-26T00:54:42.852Z,11.64
2019-04-26T00:57:15.906Z,11.71
2019-04-26T00:59:47.446Z,11.62
2019-04-26T01:02:23.865Z,11.41
2019-04-26T01:04:54.599Z,11.37
2019-04-26T01:07:26.119Z,11.25
2019-04-26T01:09:56.459Z,11.27
2019-04-26T01:12:27.171Z,11.24
2019-04-26T01:14:57.591Z,11.25
2019-04-26T01:17:27.994Z,11.24
2019-04-26T01:19:59.186Z,11.45
2019-04-26T01:22:33.142Z,11.55
2019-04-26T01:25:05.534Z,11.53
2019-04-26T01:27:37.941Z,11.32
2019-04-26T01:30:11.819Z,11.02
2019-04-26T01:32:44.346Z,11.08
2019-04-26T01:35:15.334Z,10.94
2019-04-26T01:37:47.532Z,10.84
2019-04-26T01:40:21.770Z,10.81
2019-04-26T01:43:00.516Z,10.96
2019-04-26T01:45:44.996Z,10.95
2019-04-26T01:48:40.523Z,10.82
2019-04-26T01:51:14.391Z,10.84
2019-04-26T01:53:47.075Z,11.02
2019-04-26T01:56:21.824Z,10.94
2019-04-26T01:58:52.235Z,11.17
2019-04-26T02:01:54.194Z,11.28
2019-04-26T02:04:28.227Z,10.87
2019-04-26T02:06:58.555Z,10.88
2019-04-26T02:09:30.560Z,10.69
2019-04-26T02:12:02.446Z,10.77
2019-04-26T02:14:33.367Z,10.75
2019-04-26T02:17:04.905Z,10.81
2019-04-26T02:19:35.505Z,10.79
2019-04-26T02:22:22.292Z,10.86
2019-04-26T02:24:53.608Z,11.05
2019-04-26T02:27:31.053Z,10.89
2019-04-26T02:30:03.157Z,10.71
2019-04-26T02:32:35.295Z,10.55
2019-04-26T02:35:06.525Z,10.50
2019-04-26T02:37:38.329Z,10.39
2019-04-26T02:40:13.228Z,10.41
2019-04-26T02:42:45.302Z,10.43
2019-04-26T02:46:20.390Z,10.60
2019-04-26T02:49:31.247Z,10.60
2019-04-26T02:52:27.890Z,10.61
2019-04-26T02:55:08.341Z,10.50
2019-04-26T02:57:45.389Z,10.83
2019-04-26T03:00:17.755Z,10.38
2019-04-26T03:02:56.509Z,10.29
2019-04-26T03:05:31.724Z,10.09
2019-04-26T03:08:08.706Z,10.28
2019-04-26T03:10:45.614Z,10.24
2019-04-26T03:13:32.193Z,10.18
2019-04-26T03:16:15.359Z,10.08
2019-04-26T03:18:58.060Z,10.17
2019-04-26T03:21:40.602Z,10.28
2019-04-26T03:24:19.956Z,10.29
2019-04-26T03:27:04.604Z,10.23
2019-04-26T03:29:45.406Z,10.42
2019-04-26T03:32:48.302Z,10.38
2019-04-26T03:35:28.884Z,10.40
2019-04-26T03:38:20.190Z,10.55
2019-04-26T03:41:28.526Z,10.43
2019-04-26T03:44:18.382Z,10.23
2019-04-26T03:47:01.540Z,10.31
2019-04-26T03:49:45.875Z,10.25
2019-04-26T03:52:45.622Z,10.20
2019-04-26T03:56:05.057Z,10.16
2019-04-26T03:59:15.859Z,10.12
2019-04-26T04:01:59.871Z,10.05
2019-04-26T04:04:39.584Z,10.14
2019-04-26T04:07:13.470Z,10.22
2019-04-26T04:09:48.880Z,10.44
2019-04-26T04:12:45.790Z,10.37
2019-04-26T04:15:22.431Z,10.57
2019-04-26T04:17:59.411Z,10.71
2019-04-26T04:20:52.907Z,10.88
2019-04-26T04:23:49.943Z,11.00
2019-04-26T04:26:32.354Z,11.15
2019-04-26T04:29:46.510Z,11.39
2019-04-26T04:32:20.654Z,11.29
2019-04-26T04:34:54.846Z,11.46
2019-04-26T04:37:29.545Z,11.47
2019-04-26T04:40:13.306Z,11.63
2019-04-26T04:43:31.048Z,11.54
2019-04-26T04:46:51.926Z,11.45
2019-04-26T04:49:34.863Z,11.38
2019-04-26T04:52:29.116Z,11.60
2019-04-26T04:55:08.110Z,11.90
2019-04-26T04:57:52.378Z,12.17
2019-04-26T05:00:55.392Z,12.26
2019-04-26T05:03:42.357Z,12.40
2019-04-26T05:06:42.822Z,12.48
2019-04-26T05:09:23.569Z,12.55
2019-04-26T05:12:27.754Z,12.64
2019-04-26T05:15:39.282Z,12.73
2019-04-26T05:18:26.503Z,11.38
2019-04-26T05:21:40.743Z,13.14
2019-04-26T05:24:19.277Z,13.27
2019-04-26T05:27:31.368Z,13.40
2019-04-26T05:30:38.139Z,13.56
2019-04-26T05:33:33.501Z,13.69
2019-04-26T05:36:18.773Z,13.94
2019-04-26T05:39:03.334Z,14.66
2019-04-26T05:42:05.511Z,14.65
2019-04-26T05:45:12.779Z,14.50
2019-04-26T05:48:05.202Z,14.81
2019-04-26T05:51:12.784Z,15.15
2019-04-26T05:54:26.796Z,15.25
2019-04-26T05:57:20.511Z,15.39
2019-04-26T06:00:23.758Z,15.59
2019-04-26T06:03:58.393Z,15.65
2019-04-26T06:06:40.701Z,15.58
2019-04-26T06:09:38.591Z,15.70
2019-04-26T06:12:25.269Z,15.90
2019-04-26T06:15:44.436Z,15.79
2019-04-26T06:18:46.929Z,16.10
2019-04-26T06:21:27.146Z,16.36
2019-04-26T06:24:18.447Z,16.44
2019-04-26T06:27:19.148Z,16.47
2019-04-26T06:29:58.770Z,16.67
2019-04-26T06:32:56.434Z,16.93
2019-04-26T06:35:24.906Z,17.14
2019-04-26T06:39:04.402Z,17.27
2019-04-26T06:42:05.211Z,17.84
2019-04-26T06:45:30.378Z,17.73
2019-04-26T06:48:16.472Z,17.68
2019-04-26T06:50:54.185Z,17.68
2019-04-26T06:53:42.524Z,17.65
2019-04-26T06:56:51.968Z,17.86
2019-04-26T06:59:49.729Z,17.89
2019-04-26T07:02:27.587Z,18.11
2019-04-26T07:05:17.782Z,18.58
2019-04-26T07:08:09.197Z,18.72
2019-04-26T07:11:23.996Z,18.72
2019-04-26T07:14:33.096Z,19.05
2019-04-26T07:17:10.572Z,18.62
2019-04-26T07:20:26.615Z,18.92
2019-04-26T07:23:37.747Z,19.36
2019-04-26T07:26:57.931Z,19.58
2019-04-26T07:30:05.329Z,19.35
2019-04-26T07:33:04.249Z,19.31
2019-04-26T07:36:03.751Z,19.65
2019-04-26T07:39:27.243Z,19.97
2019-04-26T07:43:03.697Z,19.90
2019-04-26T07:46:12.853Z,19.88
2019-04-26T07:48:59.675Z,20.06
2019-04-26T07:52:14.243Z,20.15
2019-04-26T07:55:17.660Z,20.43
2019-04-26T07:58:31.904Z,20.85
2019-04-26T08:01:47.456Z,20.70
2019-04-26T08:04:23.632Z,20.83
2019-04-26T08:07:20.046Z,21.07
2019-04-26T08:10:00.151Z,21.35
2019-04-26T08:12:33.355Z,21.32
2019-04-26T08:15:29.043Z,21.06
2019-04-26T08:18:13.755Z,20.84
2019-04-26T08:20:56.006Z,20.78
2019-04-26T08:23:41.663Z,21.27
2019-04-26T08:26:15.519Z,21.44
2019-04-26T08:28:48.167Z,21.59
2019-04-26T08:31:24.309Z,21.42
2019-04-26T08:34:02.775Z,21.29
2019-04-26T08:36:40.293Z,21.63
2019-04-26T08:39:19.066Z,21.66
2019-04-26T08:41:51.827Z,22.16
2019-04-26T08:44:42.149Z,22.14
2019-04-26T08:47:32.167Z,22.33
2019-04-26T08:50:11.032Z,22.36
2019-04-26T08:52:43.666Z,21.96
2019-04-26T08:55:16.776Z,22.25
2019-04-26T08:57:50.797Z,22.46
2019-04-26T09:00:39.775Z,22.74
2019-04-26T09:03:23.176Z,22.44
2019-04-26T09:06:07.996Z,22.10
2019-04-26T09:08:43.494Z,22.29
2019-04-26T09:11:24.066Z,22.61
2019-04-26T09:13:50.832Z,23.05
2019-04-26T09:16:21.976Z,23.16
2019-04-26T09:18:55.077Z,22.93
2019-04-26T09:21:31.588Z,22.85
2019-04-26T09:24:21.052Z,22.98
2019-04-26T09:27:08.560Z,23.21
2019-04-26T09:30:04.798Z,23.37
2019-04-26T09:32:38.080Z,23.09
2019-04-26T09:35:11.265Z,23.31
2019-04-26T09:37:41.126Z,23.88
2019-04-26T09:40:20.986Z,24.12
2019-04-26T09:43:03.248Z,24.11
2019-04-26T09:45:52.625Z,24.35
2019-04-26T09:48:36.731Z,24.45
2019-04-26T09:51:07.781Z,24.69
2019-04-26T09:53:39.555Z,25.02
2019-04-26T09:56:10.266Z,25.16
2019-04-26T09:58:40.648Z,25.17
2019-04-26T10:01:11.093Z,25.63
2019-04-26T10:03:41.617Z,26.24
2019-04-26T10:06:12.345Z,26.85
2019-04-26T10:08:47.016Z,27.05
2019-04-26T10:11:18.557Z,27.52
2019-04-26T10:13:57.495Z,28.00
2019-04-26T10:16:49.694Z,28.02
2019-04-26T10:19:31.923Z,28.14
2019-04-26T10:22:03.313Z,29.13
2019-04-26T10:24:33.725Z,29.59
2019-04-26T10:27:04.983Z,29.25
2019-04-26T10:29:35.313Z,29.02
2019-04-26T10:32:05.892Z,30.40
2019-04-26T10:34:36.762Z,30.48
2019-04-26T10:37:07.988Z,29.98
2019-04-26T10:39:38.593Z,29.33
2019-04-26T10:42:09.309Z,29.37
2019-04-26T10:44:41.098Z,30.07
2019-04-26T10:47:11.661Z,30.70
2019-04-26T10:49:47.782Z,31.13
2019-04-26T10:52:34.151Z,31.20
2019-04-26T10:55:33.541Z,31.80
2019-04-26T10:58:36.221Z,31.70
2019-04-26T11:01:11.145Z,32.12
2019-04-26T11:03:41.922Z,31.08
2019-04-26T11:06:12.362Z,31.94
2019-04-26T11:08:42.685Z,32.32
2019-04-26T11:11:14.410Z,32.52
2019-04-26T11:13:44.930Z,33.23
2019-04-26T11:16:15.455Z,32.71
2019-04-26T11:18:45.792Z,31.35
2019-04-26T11:21:20.379Z,32.54
2019-04-26T11:23:49.993Z,32.74
2019-04-26T11:26:20.404Z,32.75
2019-04-26T11:28:55.842Z,32.80
2019-04-26T11:31:27.815Z,33.03
2019-04-26T11:34:05.083Z,33.07
2019-04-26T11:36:30.212Z,33.28
2019-04-26T11:39:01.338Z,33.17
2019-04-26T11:41:37.536Z,33.35
2019-04-26T11:44:07.017Z,33.95
2019-04-26T11:46:44.633Z,32.34
2019-04-26T11:49:09.827Z,33.61
2019-04-26T11:51:40.304Z,33.11
2019-04-26T11:54:10.806Z,32.68
2019-04-26T11:56:41.116Z,33.11
2019-04-26T11:59:11.869Z,33.05
2019-04-26T12:01:42.628Z,33.13
2019-04-26T12:04:31.891Z,33.50
2019-04-26T12:07:09.194Z,32.32
2019-04-26T12:09:42.504Z,32.81
2019-04-26T12:12:14.233Z,33.82
2019-04-26T12:14:44.939Z,33.78
2019-04-26T12:17:15.731Z,34.09
2019-04-26T12:19:48.209Z,34.11
2019-04-26T12:22:18.078Z,34.32
2019-04-26T12:24:48.819Z,34.18
2019-04-26T12:27:19.293Z,33.97
2019-04-26T12:29:49.883Z,34.78
2019-04-26T12:32:20.493Z,34.37
2019-04-26T12:34:51.042Z,34.31
2019-04-26T12:37:21.519Z,34.36
2019-04-26T12:39:52.147Z,34.43
2019-04-26T12:42:24.057Z,33.98
2019-04-26T12:45:01.968Z,33.67
2019-04-26T12:47:40.546Z,34.37
2019-04-26T12:50:11.305Z,34.27
2019-04-26T12:52:41.655Z,34.65
2019-04-26T12:55:13.894Z,35.19
2019-04-26T12:57:44.262Z,35.01
2019-04-26T13:00:16.961Z,35.31
2019-04-26T13:02:50.211Z,35.03
2019-04-26T13:05:20.611Z,35.41
2019-04-26T13:07:53.552Z,34.96
2019-04-26T13:10:46.151Z,35.63
2019-04-26T13:13:30.115Z,35.88
2019-04-26T13:16:06.709Z,35.47
2019-04-26T13:18:37.277Z,35.95
2019-04-26T13:21:07.583Z,36.11
2019-04-26T13:23:37.925Z,36.03
2019-04-26T13:26:08.347Z,36.41
2019-04-26T13:28:39.103Z,36.67
2019-04-26T13:31:09.962Z,36.04
2019-04-26T13:33:40.304Z,36.12
2019-04-26T13:36:10.781Z,36.25
2019-04-26T13:38:43.373Z,36.18
2019-04-26T13:41:13.199Z,35.41
2019-04-26T13:43:44.822Z,35.27
2019-04-26T13:46:23.718Z,36.00
2019-04-26T13:49:05.083Z,36.47
2019-04-26T13:51:35.442Z,36.76
2019-04-26T13:54:06.390Z,36.90
2019-04-26T13:56:37.610Z,37.36
2019-04-26T13:59:08.313Z,37.56
2019-04-26T14:01:38.709Z,37.73
2019-04-26T14:04:10.142Z,37.50
2019-04-26T14:06:40.968Z,37.83
2019-04-26T14:09:13.860Z,37.55
2019-04-26T14:11:44.195Z,36.38
2019-04-26T14:14:14.837Z,36.88
2019-04-26T14:16:45.218Z,36.56
2019-04-26T14:19:16.901Z,36.75
2019-04-26T14:21:47.579Z,36.76
2019-04-26T14:24:41.686Z,36.39
2019-04-26T14:27:17.776Z,36.35
2019-04-26T14:29:48.527Z,36.65
2019-04-26T14:32:23.001Z,36.09
2019-04-26T14:34:51.324Z,35.86
2019-04-26T14:37:21.864Z,36.51
2019-04-26T14:39:55.361Z,36.78
2019-04-26T14:42:33.732Z,36.86
2019-04-26T14:44:56.460Z,36.54
2019-04-26T14:47:30.392Z,36.80
2019-04-26T14:49:59.390Z,37.01
2019-04-26T14:52:29.732Z,37.19
2019-04-26T14:55:00.203Z,37.22
2019-04-26T14:57:31.676Z,37.13
2019-04-26T15:00:02.704Z,37.33
2019-04-26T15:03:03.260Z,37.36
2019-04-26T15:05:43.166Z,37.49
2019-04-26T15:08:13.809Z,37.87
2019-04-26T15:10:48.569Z,37.49
2019-04-26T15:13:20.661Z,37.46
2019-04-26T15:15:48.297Z,36.99
2019-04-26T15:18:18.692Z,37.29
2019-04-26T15:20:49.047Z,36.78
2019-04-26T15:23:23.937Z,37.13
2019-04-26T15:25:52.818Z,36.64
2019-04-26T15:28:23.354Z,36.60
2019-04-26T15:30:53.990Z,36.73
2019-04-26T15:33:24.565Z,36.42
2019-04-26T15:35:54.915Z,36.19
2019-04-26T15:38:25.609Z,36.28
2019-04-26T15:41:17.761Z,36.19
2019-04-26T15:44:13.600Z,36.27
2019-04-26T15:47:13.635Z,35.94
2019-04-26T15:50:09.851Z,35.19
2019-04-26T15:52:38.629Z,35.31
2019-04-26T15:55:09.561Z,34.45
2019-04-26T15:57:39.859Z,33.71
2019-04-26T16:00:12.534Z,32.80
2019-04-26T16:02:43.364Z,32.31
2019-04-26T16:05:16.536Z,31.63
2019-04-26T16:07:45.891Z,31.19
2019-04-26T16:10:16.556Z,29.90
2019-04-26T16:12:47.322Z,30.30
2019-04-26T16:15:17.759Z,29.85
2019-04-26T16:17:48.161Z,29.08
2019-04-26T16:20:18.681Z,29.30
2019-04-26T16:22:49.383Z,28.70
2019-04-26T16:25:19.687Z,28.27
2019-04-26T16:27:52.320Z,28.24
2019-04-26T16:30:39.941Z,28.42
2019-04-26T16:33:33.466Z,28.09
2019-04-26T16:36:02.680Z,28.04
2019-04-26T16:38:36.948Z,28.02
2019-04-26T16:41:07.913Z,28.02
2019-04-26T16:43:44.637Z,27.55
2019-04-26T16:46:14.746Z,27.53
2019-04-26T16:48:44.475Z,27.31
2019-04-26T16:51:14.611Z,26.70
2019-04-26T16:54:02.804Z,25.98
2019-04-26T16:56:25.851Z,25.96
2019-04-26T16:58:53.603Z,25.25
2019-04-26T17:01:23.583Z,25.33
2019-04-26T17:03:54.419Z,25.08
2019-04-26T17:06:24.715Z,25.00
2019-04-26T17:09:01.161Z,24.91
2019-04-26T17:11:30.227Z,24.60
2019-04-26T17:14:04.806Z,24.42
2019-04-26T17:16:34.693Z,24.42
2019-04-26T17:19:04.704Z,24.54
2019-04-26T17:21:41.146Z,24.47
2019-04-26T17:24:26.088Z,24.37
2019-04-26T17:27:05.396Z,24.16
2019-04-26T17:29:33.856Z,24.08
2019-04-26T17:32:09.077Z,24.04
2019-04-26T17:34:40.327Z,24.25
2019-04-26T17:37:12.738Z,24.67
2019-04-26T17:39:41.918Z,24.41
2019-04-26T17:42:12.270Z,23.97
2019-04-26T17:44:42.543Z,23.92
2019-04-26T17:47:12.925Z,23.88
2019-04-26T17:49:44.001Z,23.78
2019-04-26T17:52:15.083Z,23.84
2019-04-26T17:54:48.983Z,23.92
2019-04-26T17:57:31.300Z,23.72
2019-04-26T17:59:51.522Z,23.29
2019-04-26T18:02:40.224Z,23.28
2019-04-26T18:05:00.407Z,23.19
2019-04-26T18:07:40.263Z,22.97
2019-04-26T18:10:02.373Z,22.76
2019-04-26T18:12:32.617Z,22.80
2019-04-26T18:15:06.151Z,22.72
2019-04-26T18:18:09.663Z,22.79
2019-04-26T18:20:58.513Z,22.67
2019-04-26T18:23:30.403Z,22.55
2019-04-26T18:26:00.970Z,22.45
2019-04-26T18:28:31.721Z,22.31
2019-04-26T18:31:03.624Z,22.28
2019-04-26T18:33:34.585Z,22.46
2019-04-26T18:36:05.317Z,22.38
2019-04-26T18:38:35.915Z,22.37
2019-04-26T18:41:06.455Z,22.16
2019-04-26T18:43:37.111Z,21.98
2019-04-26T18:46:13.961Z,22.09
2019-04-26T18:48:44.353Z,21.91
2019-04-26T18:51:14.694Z,22.09
2019-04-26T18:54:14.579Z,22.06
2019-04-26T18:56:49.932Z,21.35
2019-04-26T18:59:23.333Z,20.74
2019-04-26T19:01:54.756Z,20.18
2019-04-26T19:04:25.266Z,19.77
2019-04-26T19:06:55.985Z,19.57
2019-04-26T19:09:28.096Z,19.98
2019-04-26T19:11:58.603Z,19.56
2019-04-26T19:14:49.877Z,19.91
2019-04-26T19:17:30.109Z,20.05
2019-04-26T19:20:22.808Z,20.08
2019-04-26T19:22:58.203Z,19.99
2019-04-26T19:25:29.830Z,19.21
2019-04-26T19:28:05.842Z,18.81
2019-04-26T19:30:33.449Z,19.04
2019-04-26T19:33:03.836Z,19.42
2019-04-26T19:35:39.382Z,19.62
2019-04-26T19:38:13.391Z,19.24
2019-04-26T19:40:46.412Z,18.79
2019-04-26T19:43:13.108Z,18.84
2019-04-26T19:46:09.549Z,18.54
2019-04-26T19:49:00.015Z,18.60
2019-04-26T19:51:49.154Z,18.95
2019-04-26T19:54:37.995Z,18.41
2019-04-26T19:57:09.311Z,18.33
2019-04-26T19:59:39.930Z,18.56
2019-04-26T20:02:10.240Z,18.56
2019-04-26T20:04:41.926Z,17.99
2019-04-26T20:07:12.423Z,17.99
2019-04-26T20:09:43.820Z,17.73
2019-04-26T20:12:14.243Z,17.73
2019-04-26T20:14:50.707Z,17.92
2019-04-26T20:17:19.746Z,18.05
2019-04-26T20:19:53.914Z,18.06
2019-04-26T20:22:28.240Z,18.13
2019-04-26T20:24:57.464Z,17.88
2019-04-26T20:27:27.984Z,17.88
2019-04-26T20:29:58.779Z,17.81
2019-04-26T20:32:37.365Z,18.03
2019-04-26T20:35:20.013Z,18.11
2019-04-26T20:37:52.070Z,18.02
2019-04-26T20:40:25.520Z,17.49
2019-04-26T20:43:01.973Z,17.50
2019-04-26T20:45:38.915Z,17.63
2019-04-26T20:47:59.216Z,17.85
2019-04-26T20:50:33.456Z,17.73
2019-04-26T20:53:02.340Z,17.40
2019-04-26T20:55:34.629Z,17.05
2019-04-26T20:58:08.500Z,16.90
2019-04-26T21:00:37.812Z,16.82
2019-04-26T21:03:21.029Z,16.61
2019-04-26T21:05:46.063Z,16.72
2019-04-26T21:08:14.004Z,16.63
2019-04-26T21:10:44.351Z,16.64
2019-04-26T21:13:14.950Z,16.66
2019-04-26T21:15:56.082Z,16.19
2019-04-26T21:18:17.341Z,16.31
2019-04-26T21:20:48.190Z,16.59
2019-04-26T21:23:18.871Z,16.83
2019-04-26T21:26:17.311Z,16.70
2019-04-26T21:28:54.282Z,16.39
2019-04-26T21:31:45.472Z,16.55
2019-04-26T21:34:25.675Z,16.77
2019-04-26T21:37:11.434Z,16.88
2019-04-26T21:39:54.165Z,16.60
2019-04-26T21:42:25.850Z,16.48
2019-04-26T21:44:56.395Z,16.34
2019-04-26T21:47:27.550Z,16.47
2019-04-26T21:50:00.766Z,16.23
2019-04-26T21:52:34.203Z,15.96
2019-04-26T21:55:06.518Z,15.88
2019-04-26T21:57:37.154Z,15.94
2019-04-26T22:00:18.069Z,15.93
2019-04-26T22:02:50.156Z,15.65
2019-04-26T22:05:20.443Z,15.68
2019-04-26T22:07:51.089Z,15.97
2019-04-26T22:10:28.127Z,15.73
2019-04-26T22:13:01.490Z,15.90
2019-04-26T22:15:54.509Z,15.50
2019-04-26T22:18:30.018Z,15.26
2019-04-26T22:21:07.023Z,15.28
2019-04-26T22:23:47.621Z,15.47
2019-04-26T22:26:19.274Z,15.59
2019-04-26T22:28:49.791Z,15.13
2019-04-26T22:31:20.356Z,15.08
2019-04-26T22:33:50.685Z,15.14
2019-04-26T22:36:23.247Z,15.16
2019-04-26T22:38:55.646Z,15.02
2019-04-26T22:41:28.510Z,14.84
2019-04-26T22:44:05.056Z,14.78
2019-04-26T22:47:03.599Z,14.65
2019-04-26T22:49:34.989Z,14.71
2019-04-26T22:52:06.445Z,14.69
2019-04-26T22:54:37.643Z,14.67
2019-04-26T22:57:13.152Z,14.63
2019-04-26T22:59:43.272Z,14.69
2019-04-26T23:02:18.430Z,14.56
2019-04-26T23:04:49.033Z,14.59
2019-04-26T23:07:23.226Z,14.65
2019-04-26T23:09:55.126Z,14.60
2019-04-26T23:12:44.020Z,14.64
2019-04-26T23:15:39.761Z,14.79
2019-04-26T23:18:27.864Z,14.69
2019-04-26T23:21:07.738Z,14.77
2019-04-26T23:23:40.982Z,14.63
2019-04-26T23:26:10.033Z,14.58
2019-04-26T23:28:40.676Z,14.50
2019-04-26T23:31:11.101Z,14.62
2019-04-26T23:33:42.924Z,14.67
2019-04-26T23:36:13.846Z,14.68
2019-04-26T23:38:45.844Z,14.62
2019-04-26T23:41:16.187Z,14.36
2019-04-26T23:43:46.683Z,14.30
2019-04-26T23:46:18.877Z,14.30
2019-04-26T23:48:50.105Z,14.29
2019-04-26T23:51:20.782Z,14.30
2019-04-26T23:53:56.341Z,14.32
2019-04-26T23:56:25.282Z,14.17
2019-04-26T23:58:55.680Z,14.16
